Strona główna
METAR-TAF:

METAR-TAF

Lotnisko :

Port lotniczy La Rochelle-Île de Ré

La Rochelle, Francja

Szerokość geograficzna: 46-10-45N, Długość geograficzna: 1-11-43W, wysokość: 23 m

Aktualna obserwacja pogody

Raport powstał 22 minut temu, godzina 08:30 UTC
Wiatr 14 kt od wschód
Temperatura 22°C
Wilgotność 46%
Ciśnienie 1026 hPa
Widzialność 10 km lub więcej
Brak chmur poniżej 1500 m i brak chmur cumulonimbus

METAR: LFBH 280830Z AUTO 08014KT CAVOK 22/10 Q1026

czas: 10:52 (08:52 UTC)


TAF: brakujący

Obserwacja i prognoza pogody dla ponad 4000 lotnisk (raport METAR i TAF).

Dostępne stacje oznaczono żółtymi i czerwonymi punktami na mapie.

Najedź kursorem aby zobaczyć nazwę stacji.

Kliknij aby zobaczyć obserwacje i prognozy pogody.

Aby zmienić mapę: kliknij na zielony przycisk z czarnym krzyżykiem, aby powiększyć; na zielony przycisk z myślnikiem, aby pomniejszyć; na zielone strzałki, aby przejść do map sąsiednich.


METAR-TAF: